createdAt,value
2022-11-29T00:01:48.094Z,3.63
2022-11-29T00:04:15.203Z,3.40
2022-11-29T00:06:42.280Z,3.70
2022-11-29T00:09:09.496Z,3.28
2022-11-29T00:11:55.297Z,3.70
2022-11-29T00:14:22.372Z,3.80
2022-11-29T00:16:49.592Z,3.40
2022-11-29T00:19:16.791Z,3.72
2022-11-29T00:21:43.923Z,3.95
2022-11-29T00:24:11.004Z,3.33
2022-11-29T00:26:38.125Z,3.65
2022-11-29T00:29:05.203Z,3.60
2022-11-29T00:31:32.632Z,3.90
2022-11-29T00:33:59.772Z,3.30
2022-11-29T00:36:26.875Z,3.53
2022-11-29T00:38:53.981Z,3.38
2022-11-29T00:41:21.053Z,3.70
2022-11-29T00:43:48.163Z,3.80
2022-11-29T00:46:15.283Z,3.40
2022-11-29T00:48:42.373Z,3.90
2022-11-29T00:51:09.444Z,3.58
2022-11-29T00:53:36.561Z,3.33
2022-11-29T00:56:03.646Z,3.63
2022-11-29T00:58:30.720Z,3.25
2022-11-29T01:00:57.898Z,3.42
2022-11-29T01:03:25.054Z,3.65
2022-11-29T01:05:52.137Z,3.50
2022-11-29T01:08:19.288Z,3.60
2022-11-29T01:10:46.371Z,3.50
2022-11-29T01:13:13.460Z,3.38
2022-11-29T01:15:41.279Z,3.42
2022-11-29T01:18:08.402Z,3.60
2022-11-29T01:20:35.531Z,3.47
2022-11-29T01:23:02.631Z,3.58
2022-11-29T01:25:29.774Z,3.40
2022-11-29T01:27:56.840Z,3.78
2022-11-29T01:30:24.122Z,3.72
2022-11-29T01:32:51.282Z,3.28
2022-11-29T01:35:18.394Z,3.40
2022-11-29T01:37:45.468Z,3.50
2022-11-29T01:40:13.888Z,3.35
2022-11-29T01:42:41.035Z,3.70
2022-11-29T01:45:08.185Z,3.70
2022-11-29T01:47:35.298Z,3.65
2022-11-29T01:50:02.372Z,3.40
2022-11-29T01:52:29.558Z,3.63
2022-11-29T01:54:56.688Z,3.30
2022-11-29T01:57:23.829Z,3.40
2022-11-29T01:59:50.966Z,3.50
2022-11-29T02:02:18.109Z,3.80
2022-11-29T02:04:45.465Z,3.58
2022-11-29T02:07:12.638Z,3.72
2022-11-29T02:09:39.735Z,3.80
2022-11-29T02:12:06.878Z,3.42
2022-11-29T02:14:34.106Z,3.80
2022-11-29T02:17:01.175Z,3.38
2022-11-29T02:19:28.297Z,3.50
2022-11-29T02:21:55.375Z,3.58
2022-11-29T02:24:22.459Z,3.40
2022-11-29T02:26:49.538Z,3.35
2022-11-29T02:29:16.621Z,3.60
2022-11-29T02:31:44.416Z,3.67
2022-11-29T02:34:11.499Z,3.65
2022-11-29T02:36:38.569Z,3.30
2022-11-29T02:39:05.662Z,3.58
2022-11-29T02:41:32.721Z,3.60
2022-11-29T02:43:59.835Z,3.30
2022-11-29T02:46:26.960Z,3.20
2022-11-29T02:48:54.054Z,3.60
2022-11-29T02:51:21.116Z,3.60
2022-11-29T02:53:48.202Z,3.45
2022-11-29T02:56:15.279Z,3.50
2022-11-29T02:58:42.382Z,3.67
2022-11-29T03:01:09.569Z,3.53
2022-11-29T03:03:36.988Z,3.60
2022-11-29T03:06:04.086Z,3.30
2022-11-29T03:08:31.160Z,3.60
2022-11-29T03:10:58.252Z,3.70
2022-11-29T03:13:25.331Z,3.20
2022-11-29T03:15:52.480Z,3.38
2022-11-29T03:18:19.587Z,3.60
2022-11-29T03:20:46.717Z,3.17
2022-11-29T03:23:13.863Z,3.30
2022-11-29T03:25:41.061Z,3.60
2022-11-29T03:28:08.145Z,3.50
2022-11-29T03:30:35.208Z,3.50
2022-11-29T03:33:02.307Z,3.25
2022-11-29T03:35:29.429Z,3.75
2022-11-29T03:37:56.583Z,3.53
2022-11-29T03:40:23.717Z,3.33
2022-11-29T03:42:51.231Z,3.40
2022-11-29T03:45:18.631Z,3.30
2022-11-29T03:47:45.776Z,3.22
2022-11-29T03:50:12.872Z,3.80
2022-11-29T03:52:40.075Z,3.50
2022-11-29T03:55:07.222Z,3.53
2022-11-29T03:57:34.329Z,3.28
2022-11-29T04:00:01.409Z,3.60
2022-11-29T04:02:28.598Z,3.80
2022-11-29T04:04:55.718Z,3.40
2022-11-29T04:07:23.090Z,3.45
2022-11-29T04:09:50.260Z,3.50
2022-11-29T04:12:17.360Z,3.17
2022-11-29T04:14:44.664Z,3.38
2022-11-29T04:17:11.968Z,3.40
2022-11-29T04:19:39.033Z,3.20
2022-11-29T04:22:06.114Z,3.30
2022-11-29T04:24:33.215Z,3.85
2022-11-29T04:27:00.282Z,3.33
2022-11-29T04:29:27.348Z,3.50
2022-11-29T04:31:54.438Z,3.50
2022-11-29T04:34:21.519Z,3.42
2022-11-29T04:36:48.597Z,3.40
2022-11-29T04:39:15.719Z,3.55
2022-11-29T04:41:42.805Z,3.60
2022-11-29T04:44:09.889Z,3.58
2022-11-29T04:46:36.995Z,3.40
2022-11-29T04:49:04.138Z,3.60
2022-11-29T04:51:31.206Z,3.42
2022-11-29T04:53:58.333Z,3.25
2022-11-29T04:56:25.453Z,3.50
2022-11-29T04:58:52.552Z,3.15
2022-11-29T05:01:19.768Z,3.17
2022-11-29T05:03:47.108Z,3.22
2022-11-29T05:06:14.327Z,3.08
2022-11-29T05:08:41.414Z,3.08
2022-11-29T05:11:08.531Z,3.28
2022-11-29T05:13:35.810Z,3.25
2022-11-29T05:16:02.936Z,3.30
2022-11-29T05:18:30.042Z,3.40
2022-11-29T05:20:57.976Z,3.10
2022-11-29T05:23:25.134Z,3.30
2022-11-29T05:25:52.287Z,3.22
2022-11-29T05:28:20.463Z,3.38
2022-11-29T05:30:47.572Z,2.80
2022-11-29T05:33:14.682Z,3.03
2022-11-29T05:35:41.816Z,3.15
2022-11-29T05:38:09.037Z,3.30
2022-11-29T05:40:36.252Z,3.20
2022-11-29T05:43:03.368Z,3.25
2022-11-29T05:45:30.689Z,2.97
2022-11-29T05:47:57.763Z,2.95
2022-11-29T05:50:24.838Z,3.10
2022-11-29T05:52:51.994Z,3.20
2022-11-29T05:55:19.153Z,3.25
2022-11-29T05:57:46.234Z,3.33
2022-11-29T06:00:14.555Z,3.38
2022-11-29T06:05:13.176Z,3.22
2022-11-29T06:07:40.305Z,3.10
2022-11-29T06:10:07.430Z,2.90
2022-11-29T06:12:35.988Z,3.33
2022-11-29T06:15:03.459Z,3.30
2022-11-29T06:17:35.745Z,2.97
2022-11-29T06:20:09.113Z,2.92
2022-11-29T06:22:36.992Z,2.97
2022-11-29T06:25:04.187Z,3.00
2022-11-29T06:27:31.747Z,2.97
2022-11-29T06:29:58.837Z,3.22
2022-11-29T06:32:25.906Z,2.95
2022-11-29T06:34:53.005Z,2.97
2022-11-29T06:37:20.080Z,3.28
2022-11-29T06:39:47.166Z,3.28
2022-11-29T06:42:14.413Z,3.20
2022-11-29T06:44:41.493Z,3.30
2022-11-29T06:47:08.888Z,3.30
2022-11-29T06:49:36.098Z,3.17
2022-11-29T06:52:03.160Z,3.08
2022-11-29T06:54:30.219Z,3.17
2022-11-29T06:56:57.294Z,3.17
2022-11-29T06:59:24.438Z,3.55
2022-11-29T07:01:51.538Z,3.28
2022-11-29T07:04:21.381Z,2.80
2022-11-29T07:06:48.457Z,3.20
2022-11-29T07:09:15.555Z,2.95
2022-11-29T07:11:42.637Z,3.20
2022-11-29T07:14:09.997Z,3.03
2022-11-29T07:16:37.182Z,3.00
2022-11-29T07:19:04.459Z,3.10
2022-11-29T07:21:31.576Z,3.42
2022-11-29T07:23:58.670Z,3.45
2022-11-29T07:26:26.223Z,3.03
2022-11-29T07:28:53.340Z,3.40
2022-11-29T07:31:20.463Z,3.10
2022-11-29T07:33:47.594Z,3.03
2022-11-29T07:36:14.706Z,3.40
2022-11-29T07:38:41.801Z,2.75
2022-11-29T07:41:08.874Z,3.33
2022-11-29T07:43:35.992Z,2.88
2022-11-29T07:46:03.059Z,2.80
2022-11-29T07:48:30.181Z,3.17
2022-11-29T07:50:57.339Z,2.97
2022-11-29T07:53:24.457Z,2.85
2022-11-29T07:55:51.603Z,2.97
2022-11-29T07:58:18.730Z,3.00
2022-11-29T08:00:45.949Z,2.47
2022-11-29T08:03:13.066Z,2.83
2022-11-29T08:05:40.256Z,2.67
2022-11-29T08:08:07.343Z,2.88
2022-11-29T08:10:35.617Z,3.13
2022-11-29T08:13:02.843Z,2.80
2022-11-29T08:15:30.081Z,2.88
2022-11-29T08:17:57.643Z,2.85
2022-11-29T08:20:24.790Z,3.00
2022-11-29T08:22:51.881Z,2.83
2022-11-29T08:25:18.968Z,2.80
2022-11-29T08:27:46.045Z,2.95
2022-11-29T08:30:13.124Z,2.63
2022-11-29T08:32:40.221Z,2.80
2022-11-29T08:35:07.316Z,2.78
2022-11-29T08:37:34.570Z,2.85
2022-11-29T08:40:01.789Z,2.50
2022-11-29T08:42:28.875Z,2.90
2022-11-29T08:44:55.985Z,2.90
2022-11-29T08:47:38.457Z,2.72
2022-11-29T08:50:05.557Z,2.90
2022-11-29T08:52:51.533Z,3.20
2022-11-29T08:55:19.979Z,2.80
2022-11-29T08:57:47.119Z,2.65
2022-11-29T09:00:14.294Z,2.70
2022-11-29T09:02:41.487Z,2.80
2022-11-29T09:05:08.586Z,3.10
2022-11-29T09:07:35.774Z,2.92
2022-11-29T09:10:05.475Z,2.90
2022-11-29T09:12:35.588Z,2.60
2022-11-29T09:15:02.726Z,2.80
2022-11-29T09:17:29.866Z,2.80
2022-11-29T09:19:57.120Z,2.88
2022-11-29T09:22:24.234Z,2.53
2022-11-29T09:24:51.386Z,2.90
2022-11-29T09:27:18.473Z,2.78
2022-11-29T09:29:45.694Z,2.63
2022-11-29T09:32:12.791Z,2.70
2022-11-29T09:34:42.410Z,2.90
2022-11-29T09:37:09.655Z,2.92
2022-11-29T09:39:36.784Z,2.80
2022-11-29T09:42:03.899Z,2.60
2022-11-29T09:44:30.983Z,2.60
2022-11-29T09:46:58.965Z,3.00
2022-11-29T09:49:26.138Z,2.78
2022-11-29T09:51:53.272Z,2.55
2022-11-29T09:54:20.365Z,2.72
2022-11-29T09:56:47.441Z,2.70
2022-11-29T09:59:14.550Z,2.50
2022-11-29T10:01:41.756Z,2.50
2022-11-29T10:04:09.021Z,2.50
2022-11-29T10:06:38.693Z,2.60
2022-11-29T10:09:05.767Z,2.50
2022-11-29T10:11:32.927Z,2.60
2022-11-29T10:14:00.568Z,2.50
2022-11-29T10:16:27.705Z,2.80
2022-11-29T10:18:57.951Z,2.60
2022-11-29T10:21:25.054Z,2.55
2022-11-29T10:23:52.204Z,2.85
2022-11-29T10:26:20.788Z,2.85
2022-11-29T10:28:49.326Z,2.67
2022-11-29T10:31:16.524Z,2.67
2022-11-29T10:33:43.783Z,2.55
2022-11-29T10:36:10.866Z,2.60
2022-11-29T10:38:37.976Z,2.60
2022-11-29T10:41:05.069Z,2.58
2022-11-29T10:43:32.168Z,2.60
2022-11-29T10:45:59.351Z,2.70
2022-11-29T10:48:26.612Z,2.67
2022-11-29T10:50:53.799Z,2.70
2022-11-29T10:53:20.913Z,2.50
2022-11-29T10:55:48.071Z,2.60
2022-11-29T10:58:15.209Z,2.55
2022-11-29T11:00:42.526Z,2.50
2022-11-29T11:03:09.645Z,2.60
2022-11-29T11:05:36.792Z,2.50
2022-11-29T11:08:05.499Z,2.70
2022-11-29T11:10:32.761Z,2.58
2022-11-29T11:12:59.840Z,2.83
2022-11-29T11:15:28.281Z,2.70
2022-11-29T11:17:55.358Z,2.30
2022-11-29T11:20:23.838Z,2.80
2022-11-29T11:22:50.902Z,2.53
2022-11-29T11:25:18.329Z,2.42
2022-11-29T11:27:45.393Z,2.70
2022-11-29T11:30:12.467Z,2.60
2022-11-29T11:32:39.592Z,2.53
2022-11-29T11:35:06.653Z,2.67
2022-11-29T11:37:35.704Z,2.90
2022-11-29T11:40:02.904Z,3.08
2022-11-29T11:42:39.311Z,3.58
2022-11-29T11:45:06.881Z,3.05
2022-11-29T11:47:33.980Z,3.30
2022-11-29T11:50:04.050Z,2.90
2022-11-29T11:52:34.783Z,2.83
2022-11-29T11:55:04.142Z,2.88
2022-11-29T11:57:31.420Z,2.58
2022-11-29T12:00:02.103Z,3.10
2022-11-29T12:02:32.411Z,2.65
2022-11-29T12:04:59.602Z,2.80
2022-11-29T12:07:59.298Z,3.00
2022-11-29T12:10:13.854Z,2.72
2022-11-29T12:12:40.954Z,3.20
2022-11-29T12:15:08.070Z,2.97
2022-11-29T12:17:37.923Z,2.95
2022-11-29T12:20:05.026Z,2.92
2022-11-29T12:22:32.167Z,2.60
2022-11-29T12:24:59.707Z,2.72
2022-11-29T12:27:27.029Z,2.70
2022-11-29T12:29:54.168Z,2.58
2022-11-29T12:32:21.256Z,2.80
2022-11-29T12:34:48.758Z,2.72
2022-11-29T12:37:16.268Z,2.63
2022-11-29T12:39:43.355Z,2.70
2022-11-29T12:42:10.464Z,2.83
2022-11-29T12:44:37.548Z,3.00
2022-11-29T12:47:34.655Z,2.55
2022-11-29T12:49:51.722Z,2.70
2022-11-29T12:52:18.822Z,2.60
2022-11-29T12:54:46.187Z,2.67
2022-11-29T12:57:13.428Z,2.42
2022-11-29T12:59:41.923Z,2.47
2022-11-29T13:02:09.038Z,2.60
2022-11-29T13:04:36.386Z,2.60
2022-11-29T13:07:03.745Z,2.55
2022-11-29T13:09:30.830Z,2.50
2022-11-29T13:11:57.957Z,2.60
2022-11-29T13:17:12.099Z,2.50
2022-11-29T13:19:39.332Z,2.70
2022-11-29T13:22:06.733Z,2.80
2022-11-29T13:24:36.052Z,2.65
2022-11-29T13:27:06.793Z,2.50
2022-11-29T13:29:33.877Z,2.53
2022-11-29T13:32:00.968Z,2.40
2022-11-29T13:34:28.127Z,2.65
2022-11-29T13:36:55.267Z,2.47
2022-11-29T13:39:22.336Z,2.50
2022-11-29T13:41:49.479Z,2.58
2022-11-29T13:44:17.091Z,2.30
2022-11-29T13:46:44.301Z,2.40
2022-11-29T13:49:11.807Z,2.75
2022-11-29T13:51:38.981Z,2.67
2022-11-29T13:54:06.208Z,2.50
2022-11-29T13:56:36.217Z,2.30
2022-11-29T13:59:03.585Z,2.60
2022-11-29T14:01:30.685Z,2.33
2022-11-29T14:03:57.819Z,2.53
2022-11-29T14:06:24.931Z,2.40
2022-11-29T14:09:17.651Z,2.50
2022-11-29T14:11:39.092Z,2.67
2022-11-29T14:14:06.213Z,2.40
2022-11-29T14:16:33.361Z,2.70
2022-11-29T14:19:00.441Z,2.58
2022-11-29T14:21:27.526Z,2.80
2022-11-29T14:23:54.634Z,2.53
2022-11-29T14:26:27.913Z,2.30
2022-11-29T14:28:55.725Z,2.50
2022-11-29T14:31:22.814Z,2.50
2022-11-29T14:33:49.901Z,2.55
2022-11-29T14:36:20.012Z,2.40
2022-11-29T14:38:47.640Z,2.90
2022-11-29T14:41:14.731Z,2.50
2022-11-29T14:43:41.907Z,2.25
2022-11-29T14:46:09.068Z,2.40
2022-11-29T14:48:36.779Z,2.58
2022-11-29T14:51:03.867Z,2.40
2022-11-29T14:53:31.012Z,2.40
2022-11-29T14:55:58.091Z,2.35
2022-11-29T14:58:25.198Z,2.63
2022-11-29T15:00:52.363Z,2.53
2022-11-29T15:03:20.581Z,2.50
2022-11-29T15:05:47.734Z,2.50
2022-11-29T15:08:15.463Z,2.70
2022-11-29T15:10:42.663Z,2.38
2022-11-29T15:13:09.740Z,2.50
2022-11-29T15:15:36.865Z,2.60
2022-11-29T15:18:03.972Z,2.80
2022-11-29T15:20:31.115Z,2.55
2022-11-29T15:22:59.601Z,2.35
2022-11-29T15:25:27.571Z,2.50
2022-11-29T15:27:54.748Z,2.60
2022-11-29T15:30:21.856Z,2.60
2022-11-29T15:32:48.929Z,2.30
2022-11-29T15:35:16.014Z,2.17
2022-11-29T15:37:44.757Z,2.33
2022-11-29T15:40:11.998Z,2.53
2022-11-29T15:42:39.404Z,2.78
2022-11-29T15:45:06.475Z,2.70
2022-11-29T15:47:33.574Z,2.55
2022-11-29T15:50:00.712Z,2.38
2022-11-29T15:52:27.840Z,2.70
2022-11-29T15:54:54.954Z,2.70
2022-11-29T15:57:22.094Z,2.28
2022-11-29T15:59:49.222Z,2.92
2022-11-29T16:02:16.337Z,2.75
2022-11-29T16:04:46.864Z,2.60
2022-11-29T16:07:14.322Z,2.30
2022-11-29T16:09:41.403Z,2.55
2022-11-29T16:12:08.485Z,2.40
2022-11-29T16:14:35.690Z,2.53
2022-11-29T16:17:03.899Z,2.58
2022-11-29T16:19:30.986Z,2.35
2022-11-29T16:21:58.058Z,2.17
2022-11-29T16:24:25.178Z,2.42
2022-11-29T16:26:52.275Z,2.75
2022-11-29T16:29:19.416Z,2.90
2022-11-29T16:31:46.557Z,2.75
2022-11-29T16:34:13.751Z,2.63
2022-11-29T16:36:40.850Z,2.90
2022-11-29T16:39:08.087Z,2.60
2022-11-29T16:41:35.224Z,2.65
2022-11-29T16:44:03.478Z,2.72
2022-11-29T16:46:30.645Z,2.83
2022-11-29T16:48:57.733Z,2.75
2022-11-29T16:51:24.995Z,2.75
2022-11-29T16:53:52.153Z,3.67
2022-11-29T16:56:19.435Z,3.83
2022-11-29T16:59:25.666Z,3.63
2022-11-29T17:01:33.810Z,3.65
2022-11-29T17:04:00.976Z,3.92
2022-11-29T17:06:28.094Z,4.15
2022-11-29T17:08:55.172Z,3.50
2022-11-29T17:11:22.255Z,3.67
2022-11-29T17:13:50.162Z,3.60
2022-11-29T17:16:17.273Z,4.18
2022-11-29T17:18:45.195Z,4.30
2022-11-29T17:21:12.259Z,4.53
2022-11-29T17:23:39.354Z,4.30
2022-11-29T17:26:07.628Z,4.47
2022-11-29T17:28:34.724Z,4.35
2022-11-29T17:31:01.797Z,4.75
2022-11-29T17:33:28.892Z,4.78
2022-11-29T17:35:55.979Z,5.20
2022-11-29T17:38:23.054Z,5.57
2022-11-29T17:40:50.136Z,5.68
2022-11-29T17:43:17.403Z,5.60
2022-11-29T17:45:44.534Z,6.10
2022-11-29T17:48:11.701Z,6.15
2022-11-29T17:50:43.394Z,6.30
2022-11-29T17:53:10.600Z,6.45
2022-11-29T17:55:37.690Z,6.60
2022-11-29T17:58:04.798Z,6.40
2022-11-29T18:00:31.885Z,6.72
2022-11-29T18:02:59.055Z,6.70
2022-11-29T18:05:34.194Z,6.53
2022-11-29T18:10:29.027Z,7.05
2022-11-29T18:12:56.160Z,7.72
2022-11-29T18:15:23.886Z,7.50
2022-11-29T18:17:50.963Z,7.45
2022-11-29T18:20:18.055Z,6.90
2022-11-29T18:22:45.136Z,7.53
2022-11-29T18:25:37.525Z,7.45
2022-11-29T18:28:00.670Z,7.68
2022-11-29T18:30:28.177Z,7.80
2022-11-29T18:32:56.654Z,7.47
2022-11-29T18:35:24.746Z,7.35
2022-11-29T18:38:14.009Z,8.65
2022-11-29T18:40:38.898Z,8.23
2022-11-29T18:43:05.993Z,8.32
2022-11-29T18:45:33.067Z,8.38
2022-11-29T18:48:00.135Z,8.13
2022-11-29T18:50:27.292Z,7.85
2022-11-29T18:52:55.870Z,8.18
2022-11-29T18:55:23.045Z,8.15
2022-11-29T18:57:50.250Z,8.43
2022-11-29T19:00:17.365Z,8.50
2022-11-29T19:02:44.689Z,8.02
2022-11-29T19:05:12.245Z,8.25
2022-11-29T19:07:39.625Z,8.10
2022-11-29T19:10:06.981Z,8.25
2022-11-29T19:12:34.134Z,8.63
2022-11-29T19:15:01.306Z,8.52
2022-11-29T19:17:29.540Z,8.23
2022-11-29T19:19:56.658Z,8.60
2022-11-29T19:22:23.739Z,8.20
2022-11-29T19:24:51.066Z,7.97
2022-11-29T19:27:18.156Z,8.40
2022-11-29T19:29:45.262Z,8.20
2022-11-29T19:32:12.406Z,8.60
2022-11-29T19:34:39.568Z,8.00
2022-11-29T19:37:09.365Z,8.10
2022-11-29T19:39:37.504Z,7.80
2022-11-29T19:42:04.587Z,8.30
2022-11-29T19:44:48.235Z,8.05
2022-11-29T19:47:18.714Z,8.30
2022-11-29T19:49:46.950Z,7.32
2022-11-29T19:52:14.176Z,7.90
2022-11-29T19:54:41.262Z,7.90
2022-11-29T19:57:08.338Z,8.20
2022-11-29T19:59:35.480Z,7.63
2022-11-29T20:02:02.704Z,8.30
2022-11-29T20:04:29.887Z,7.65
2022-11-29T20:06:58.039Z,7.32
2022-11-29T20:09:26.683Z,7.57
2022-11-29T20:11:53.759Z,7.35
2022-11-29T20:14:20.880Z,7.50
2022-11-29T20:16:48.072Z,7.25
2022-11-29T20:19:15.184Z,7.55
2022-11-29T20:21:42.476Z,7.65
2022-11-29T20:24:09.754Z,7.38
2022-11-29T20:26:36.874Z,7.47
2022-11-29T20:29:03.998Z,7.28
2022-11-29T20:31:31.195Z,6.97
2022-11-29T20:33:58.366Z,8.02
2022-11-29T20:36:25.461Z,6.93
2022-11-29T20:38:52.558Z,6.95
2022-11-29T20:41:19.661Z,7.20
2022-11-29T20:43:46.746Z,6.88
2022-11-29T20:46:13.902Z,7.20
2022-11-29T20:48:41.151Z,6.90
2022-11-29T20:51:08.259Z,6.80
2022-11-29T20:53:35.513Z,7.28
2022-11-29T20:56:02.642Z,6.57
2022-11-29T20:58:29.799Z,7.03
2022-11-29T21:00:59.377Z,6.85
2022-11-29T21:03:26.564Z,7.00
2022-11-29T21:05:53.747Z,7.60
2022-11-29T21:08:23.874Z,6.47
2022-11-29T21:10:50.989Z,6.20
2022-11-29T21:13:18.203Z,6.80
2022-11-29T21:15:45.372Z,6.40
2022-11-29T21:18:12.525Z,6.70
2022-11-29T21:20:39.610Z,6.03
2022-11-29T21:23:06.997Z,6.28
2022-11-29T21:25:34.121Z,6.25
2022-11-29T21:28:01.314Z,6.55
2022-11-29T21:30:28.401Z,6.15
2022-11-29T21:32:55.470Z,5.80
2022-11-29T21:35:22.576Z,6.55
2022-11-29T21:37:49.654Z,6.13
2022-11-29T21:40:16.761Z,5.88
2022-11-29T21:42:43.833Z,6.53
2022-11-29T21:45:15.150Z,5.70
2022-11-29T21:47:42.827Z,5.80
2022-11-29T21:50:09.915Z,5.80
2022-11-29T21:52:37.025Z,6.32
2022-11-29T21:55:04.114Z,5.72
2022-11-29T21:57:31.251Z,6.28
2022-11-29T21:59:58.332Z,6.18
2022-11-29T22:02:25.546Z,5.40
2022-11-29T22:04:52.711Z,6.10
2022-11-29T22:07:19.855Z,5.80
2022-11-29T22:09:46.946Z,5.78
2022-11-29T22:12:32.939Z,5.88
2022-11-29T22:15:01.108Z,5.70
2022-11-29T22:17:28.187Z,5.20
2022-11-29T22:19:55.284Z,5.63
2022-11-29T22:22:22.386Z,5.47
2022-11-29T22:24:49.819Z,5.70
2022-11-29T22:27:18.466Z,5.50
2022-11-29T22:29:45.646Z,5.70
2022-11-29T22:32:12.731Z,5.40
2022-11-29T22:34:39.794Z,5.47
2022-11-29T22:37:06.865Z,5.40
2022-11-29T22:39:33.943Z,5.70
2022-11-29T22:42:02.126Z,5.32
2022-11-29T22:44:32.774Z,5.25
2022-11-29T22:46:59.982Z,5.50
2022-11-29T22:49:27.309Z,5.18
2022-11-29T22:51:54.949Z,4.97
2022-11-29T22:54:22.098Z,5.20
2022-11-29T22:56:49.319Z,5.25
2022-11-29T22:59:16.396Z,5.10
2022-11-29T23:01:43.594Z,5.20
2022-11-29T23:04:10.799Z,5.03
2022-11-29T23:06:37.872Z,4.97
2022-11-29T23:09:04.956Z,5.05
2022-11-29T23:11:32.107Z,4.45
2022-11-29T23:13:59.195Z,4.68
2022-11-29T23:16:26.411Z,4.85
2022-11-29T23:18:53.542Z,4.80
2022-11-29T23:21:20.613Z,4.75
2022-11-29T23:23:52.897Z,4.55
2022-11-29T23:26:23.092Z,5.00
2022-11-29T23:28:50.192Z,4.90
2022-11-29T23:31:17.295Z,4.70
2022-11-29T23:33:44.442Z,4.55
2022-11-29T23:36:11.542Z,4.60
2022-11-29T23:38:38.672Z,4.75
2022-11-29T23:41:05.839Z,4.60
2022-11-29T23:43:32.919Z,4.55
2022-11-29T23:46:00.124Z,4.45
2022-11-29T23:48:27.281Z,4.40
2022-11-29T23:50:54.455Z,4.28
2022-11-29T23:53:21.539Z,4.53
2022-11-29T23:55:48.646Z,4.63
2022-11-29T23:58:15.779Z,4.63
